Time;durP1;ratioP1;P1;durP2;ratioP2;P2;SDS_P1;SDS_P2;PMS_P1;PMS_P2;Temp;Humidity;BMP_temperature;BMP_pressure;BME280_temperature;BME280_humidity;BME280_pressure;Samples;Min_cycle;Max_cycle;Signal;HPM_P1;HPM_P2
2022/03/29 00:00:28;;;;;;;22.80;16.95;;;8.80;99.90;;;;;;4981087;28;20202;-63
2022/03/29 00:02:53;;;;;;;24.70;16.05;;;8.80;99.90;;;;;;4970154;28;20596;-63
2022/03/29 00:05:19;;;;;;;23.38;16.17;;;8.90;99.90;;;;;;4984106;28;20069;-63
2022/03/29 00:07:44;;;;;;;24.25;16.25;;;9.00;99.90;;;;;;4987777;28;20751;-63
2022/03/29 00:10:11;;;;;;;25.48;16.58;;;9.00;99.90;;;;;;4987469;28;20070;-63
2022/03/29 00:12:37;;;;;;;24.52;17.08;;;9.00;99.90;;;;;;4958510;28;20066;-63
2022/03/29 00:15:04;;;;;;;20.75;14.55;;;8.90;99.90;;;;;;4967142;28;20050;-63
2022/03/29 00:17:29;;;;;;;20.10;14.65;;;9.00;99.90;;;;;;4960495;28;20058;-63
2022/03/29 00:19:55;;;;;;;19.08;14.57;;;9.00;99.90;;;;;;4955849;28;20051;-63
2022/03/29 00:22:20;;;;;;;19.15;13.68;;;9.00;99.90;;;;;;4970498;28;20042;-63
2022/03/29 00:24:46;;;;;;;23.80;14.00;;;8.90;99.90;;;;;;4963896;28;20700;-63
2022/03/29 00:27:12;;;;;;;18.30;13.77;;;8.90;99.90;;;;;;4950502;28;20550;-63
2022/03/29 00:29:37;;;;;;;25.88;14.55;;;9.00;99.90;;;;;;4949242;28;20396;-63
2022/03/29 00:32:04;;;;;;;19.05;14.35;;;8.90;99.90;;;;;;4949919;28;20051;-63
2022/03/29 00:34:29;;;;;;;20.67;15.35;;;8.90;99.90;;;;;;4952856;28;20463;-63
2022/03/29 00:36:55;;;;;;;21.73;15.40;;;9.00;99.90;;;;;;4972694;28;20047;-64
2022/03/29 00:39:20;;;;;;;26.52;17.65;;;8.90;99.90;;;;;;4951041;28;20048;-63
2022/03/29 00:41:46;;;;;;;26.98;18.98;;;8.90;99.90;;;;;;4981485;28;20043;-63
2022/03/29 00:44:15;;;;;;;30.48;19.45;;;8.90;99.90;;;;;;4967970;28;20047;-63
2022/03/29 00:46:40;;;;;;;31.50;19.27;;;8.80;99.90;;;;;;4970579;28;20518;-63
2022/03/29 00:49:06;;;;;;;28.70;18.55;;;8.90;99.90;;;;;;4955386;28;20039;-63
2022/03/29 00:51:31;;;;;;;27.42;19.17;;;8.80;99.90;;;;;;4949842;28;20129;-64
2022/03/29 00:53:57;;;;;;;27.90;18.45;;;8.90;99.90;;;;;;4949747;28;20599;-63
2022/03/29 00:56:23;;;;;;;27.50;18.25;;;8.80;99.90;;;;;;4951472;28;20066;-64
2022/03/29 00:58:49;;;;;;;24.30;16.55;;;8.80;99.90;;;;;;4955161;28;20049;-63
2022/03/29 01:01:15;;;;;;;23.45;16.92;;;8.90;99.90;;;;;;4954648;28;20439;-63
2022/03/29 01:03:41;;;;;;;24.13;16.15;;;8.90;99.90;;;;;;4950195;28;20046;-63
2022/03/29 01:06:08;;;;;;;24.60;16.60;;;8.90;99.90;;;;;;4949707;28;20062;-63
2022/03/29 01:08:35;;;;;;;26.08;17.88;;;8.90;99.90;;;;;;4970002;28;20065;-63
2022/03/29 01:11:02;;;;;;;30.13;16.80;;;8.80;99.90;;;;;;4976463;28;20594;-64
2022/03/29 01:13:28;;;;;;;23.45;15.77;;;8.80;99.90;;;;;;4968482;28;20569;-64
2022/03/29 01:15:54;;;;;;;26.00;16.92;;;8.80;99.90;;;;;;4983102;28;20042;-63
2022/03/29 01:18:20;;;;;;;26.40;17.15;;;8.80;99.90;;;;;;4980704;28;20055;-63
2022/03/29 01:20:49;;;;;;;25.70;16.17;;;8.80;99.90;;;;;;4955094;28;20050;-63
2022/03/29 01:23:15;;;;;;;21.20;15.55;;;8.80;99.90;;;;;;4963645;28;20043;-64
2022/03/29 01:25:43;;;;;;;23.85;16.27;;;8.70;99.90;;;;;;4971321;28;20062;-64
2022/03/29 01:28:11;;;;;;;23.30;15.18;;;8.70;99.90;;;;;;4968825;28;20039;-63
2022/03/29 01:30:37;;;;;;;24.40;16.25;;;8.80;99.90;;;;;;4958438;28;20090;-64
2022/03/29 01:33:07;;;;;;;26.67;16.70;;;8.70;99.90;;;;;;4953760;28;20427;-63
2022/03/29 01:35:33;;;;;;;22.65;16.60;;;8.70;99.90;;;;;;4970730;28;20094;-63
2022/03/29 01:37:59;;;;;;;27.15;16.88;;;8.70;99.90;;;;;;4988400;28;20042;-63
2022/03/29 01:40:26;;;;;;;24.50;15.85;;;8.70;99.90;;;;;;4991456;28;20438;-64
2022/03/29 01:42:59;;;;;;;26.08;17.35;;;8.70;99.90;;;;;;4967570;28;20423;-64
2022/03/29 01:45:27;;;;;;;25.95;17.42;;;8.60;99.90;;;;;;4962238;28;20085;-63
2022/03/29 01:47:53;;;;;;;34.70;18.10;;;8.60;99.90;;;;;;4969462;28;20490;-63
2022/03/29 01:50:18;;;;;;;28.00;18.23;;;8.60;99.90;;;;;;4969487;28;20049;-63
2022/03/29 01:52:45;;;;;;;29.90;18.63;;;8.60;99.90;;;;;;4956162;28;20063;-63
2022/03/29 01:55:13;;;;;;;29.90;18.27;;;8.50;99.90;;;;;;4956018;28;20445;-64
2022/03/29 01:57:39;;;;;;;28.80;19.67;;;8.50;99.90;;;;;;4971388;28;20054;-63
2022/03/29 02:02:51;;;;;;;35.58;18.50;;;8.50;99.90;;;;;;4952453;28;20134;-63
2022/03/29 02:05:17;;;;;;;27.23;19.73;;;8.50;99.90;;;;;;4951585;28;20047;-63
2022/03/29 02:07:43;;;;;;;32.67;19.52;;;8.40;99.90;;;;;;4980357;28;20104;-64
2022/03/29 02:10:09;;;;;;;32.28;19.35;;;8.40;99.90;;;;;;4966835;28;20059;-63
2022/03/29 02:12:34;;;;;;;32.53;19.35;;;8.40;99.90;;;;;;4951710;28;20074;-63
2022/03/29 02:15:00;;;;;;;32.05;18.83;;;8.50;99.90;;;;;;4966143;28;20598;-64
2022/03/29 02:17:26;;;;;;;32.00;19.52;;;8.40;99.90;;;;;;4951146;28;20159;-63
2022/03/29 02:19:52;;;;;;;28.90;19.92;;;8.50;99.90;;;;;;4953118;28;20581;-63
2022/03/29 02:22:17;;;;;;;34.28;21.55;;;8.30;99.90;;;;;;4960011;28;20039;-63
2022/03/29 02:24:43;;;;;;;35.92;21.70;;;8.30;99.90;;;;;;4971919;28;20042;-63
2022/03/29 02:27:09;;;;;;;31.42;20.92;;;8.40;99.90;;;;;;4972056;28;20082;-64
2022/03/29 02:29:35;;;;;;;33.03;22.08;;;8.30;99.90;;;;;;4955755;28;20126;-63
2022/03/29 02:32:01;;;;;;;34.35;21.17;;;8.30;99.90;;;;;;4955905;28;20126;-63
2022/03/29 02:34:26;;;;;;;28.70;21.13;;;8.30;99.90;;;;;;4971392;28;20039;-63
2022/03/29 02:36:52;;;;;;;36.47;22.02;;;8.30;99.90;;;;;;4967253;28;20753;-63
2022/03/29 02:39:17;;;;;;;31.33;20.73;;;8.30;99.90;;;;;;4952609;28;20098;-63
2022/03/29 02:41:43;;;;;;;36.08;20.33;;;8.20;99.90;;;;;;4990419;28;20042;-63
2022/03/29 02:44:09;;;;;;;26.60;18.55;;;8.20;99.90;;;;;;4985875;28;20442;-63
2022/03/29 02:46:35;;;;;;;32.95;19.98;;;8.20;99.90;;;;;;4962810;28;20062;-63
2022/03/29 02:49:01;;;;;;;34.63;19.70;;;8.20;99.90;;;;;;4964505;28;20043;-63
2022/03/29 02:51:27;;;;;;;36.70;21.27;;;8.20;99.90;;;;;;4951748;28;20055;-63
2022/03/29 02:53:53;;;;;;;30.48;18.92;;;8.30;99.90;;;;;;4951955;28;20090;-63
2022/03/29 02:56:18;;;;;;;24.67;15.88;;;8.30;99.90;;;;;;4952162;28;20058;-63
2022/03/29 02:58:44;;;;;;;24.92;17.90;;;8.30;99.90;;;;;;4969149;28;20039;-63
2022/03/29 03:01:09;;;;;;;24.23;15.60;;;8.30;99.90;;;;;;4981110;28;20050;-64
2022/03/29 03:03:35;;;;;;;30.58;16.15;;;8.40;99.90;;;;;;4983336;28;20039;-63
2022/03/29 03:06:01;;;;;;;31.77;16.88;;;8.30;99.90;;;;;;4952045;28;20054;-63
2022/03/29 03:08:27;;;;;;;30.10;17.90;;;8.30;99.90;;;;;;4970065;28;20094;-63
2022/03/29 03:10:53;;;;;;;28.00;17.50;;;8.30;99.90;;;;;;4972451;28;20418;-63
2022/03/29 03:13:18;;;;;;;27.90;17.88;;;8.40;99.90;;;;;;4968814;28;20053;-63
2022/03/29 03:15:44;;;;;;;33.90;17.45;;;8.30;99.90;;;;;;4958767;28;20043;-63
2022/03/29 03:18:09;;;;;;;31.92;18.85;;;8.30;99.90;;;;;;4960187;28;20053;-63
2022/03/29 03:20:35;;;;;;;29.25;17.85;;;8.40;99.90;;;;;;4960125;28;20050;-63
2022/03/29 03:23:02;;;;;;;27.83;16.85;;;8.30;99.90;;;;;;4970909;28;20119;-63
2022/03/29 03:25:27;;;;;;;29.13;18.05;;;8.30;99.90;;;;;;4963203;28;20655;-63
2022/03/29 03:27:53;;;;;;;25.17;16.60;;;8.20;99.90;;;;;;4950807;28;20135;-63
2022/03/29 03:30:19;;;;;;;27.60;16.77;;;8.30;99.90;;;;;;4979659;28;20072;-64
2022/03/29 03:32:45;;;;;;;28.85;16.63;;;8.30;99.90;;;;;;4981171;28;20101;-63
2022/03/29 03:35:11;;;;;;;27.02;15.93;;;8.30;99.90;;;;;;4964378;28;20079;-64
2022/03/29 03:37:37;;;;;;;27.05;16.25;;;8.30;99.90;;;;;;4972145;28;20859;-63
2022/03/29 03:40:09;;;;;;;25.33;16.98;;;8.30;99.90;;;;;;4970577;28;20207;-63
2022/03/29 03:42:35;;;;;;;25.52;15.75;;;8.30;99.90;;;;;;4960486;28;20070;-63
2022/03/29 03:45:03;;;;;;;28.52;15.93;;;8.20;99.90;;;;;;4951061;28;20051;-63
2022/03/29 03:47:29;;;;;;;30.10;17.85;;;8.20;99.90;;;;;;4955185;28;20557;-63
2022/03/29 03:49:55;;;;;;;31.90;18.92;;;8.20;99.90;;;;;;4950577;28;20098;-63
2022/03/29 03:52:21;;;;;;;36.53;17.98;;;8.20;99.90;;;;;;4958894;28;20414;-63
2022/03/29 03:54:47;;;;;;;25.77;17.23;;;8.20;99.90;;;;;;4975478;28;20595;-64
2022/03/29 03:57:12;;;;;;;29.83;18.35;;;8.20;99.90;;;;;;4950182;28;20102;-63
2022/03/29 03:59:38;;;;;;;28.95;17.90;;;8.30;99.90;;;;;;4966688;28;20042;-63
2022/03/29 04:02:03;;;;;;;31.73;19.00;;;8.20;99.90;;;;;;4982681;28;20117;-63
2022/03/29 04:04:29;;;;;;;31.25;18.67;;;8.30;99.90;;;;;;4952854;28;20055;-63
2022/03/29 04:06:55;;;;;;;31.30;18.35;;;8.20;99.90;;;;;;4967952;28;20050;-63
2022/03/29 04:09:21;;;;;;;32.08;19.58;;;8.20;99.90;;;;;;4989162;28;20057;-64
2022/03/29 04:11:47;;;;;;;30.35;19.08;;;8.30;99.90;;;;;;4977756;28;20440;-63
2022/03/29 04:14:12;;;;;;;32.90;21.40;;;8.20;99.90;;;;;;4960610;28;20043;-63
2022/03/29 04:16:38;;;;;;;32.15;20.30;;;8.30;99.90;;;;;;4980308;28;20458;-63
2022/03/29 04:19:04;;;;;;;33.25;21.30;;;8.30;99.90;;;;;;4978821;28;20122;-64
2022/03/29 04:21:30;;;;;;;29.15;18.75;;;8.30;99.90;;;;;;4952800;28;20043;-63
2022/03/29 04:23:55;;;;;;;31.00;19.95;;;8.30;99.90;;;;;;4961240;28;20042;-63
2022/03/29 04:26:21;;;;;;;32.67;20.85;;;8.30;99.90;;;;;;4950125;28;20102;-64
2022/03/29 04:28:46;;;;;;;40.15;22.42;;;8.20;99.90;;;;;;4955055;28;20094;-63
2022/03/29 04:31:12;;;;;;;39.15;21.73;;;8.20;99.90;;;;;;4969892;28;20641;-63
2022/03/29 04:33:38;;;;;;;32.03;20.45;;;8.30;99.90;;;;;;4951570;28;20131;-64
2022/03/29 04:36:04;;;;;;;34.75;20.67;;;8.20;99.90;;;;;;4953829;28;20140;-63
2022/03/29 04:38:30;;;;;;;33.88;21.08;;;8.20;99.90;;;;;;4960497;28;20462;-63
2022/03/29 04:40:56;;;;;;;30.98;20.17;;;8.20;99.90;;;;;;4977797;28;20145;-63
2022/03/29 04:43:21;;;;;;;33.75;20.95;;;8.20;99.90;;;;;;4969265;28;20137;-63
2022/03/29 04:45:47;;;;;;;31.52;20.48;;;8.20;99.90;;;;;;4954211;28;20138;-63
2022/03/29 04:48:14;;;;;;;41.50;22.23;;;8.20;99.90;;;;;;4961085;28;20084;-63
2022/03/29 04:50:40;;;;;;;45.05;21.65;;;8.20;99.90;;;;;;4989219;28;20120;-63
2022/03/29 04:53:06;;;;;;;39.95;21.45;;;8.20;99.90;;;;;;4974375;28;20054;-63
2022/03/29 04:55:32;;;;;;;43.95;22.55;;;8.20;99.90;;;;;;4949653;28;20055;-63
2022/03/29 04:58:00;;;;;;;42.28;20.63;;;8.20;99.90;;;;;;4962366;28;20047;-63
2022/03/29 05:00:26;;;;;;;35.78;21.23;;;8.20;99.90;;;;;;4951575;28;20039;-63
2022/03/29 05:02:52;;;;;;;38.78;21.70;;;8.20;99.90;;;;;;4950250;28;20527;-63
2022/03/29 05:05:18;;;;;;;36.92;22.85;;;8.20;99.90;;;;;;4954635;28;20047;-63
2022/03/29 05:07:44;;;;;;;31.90;22.27;;;8.20;99.90;;;;;;4971465;28;20146;-64
2022/03/29 05:10:14;;;;;;;34.28;22.02;;;8.20;99.90;;;;;;4956897;28;20054;-64
2022/03/29 05:12:42;;;;;;;37.75;21.77;;;8.20;99.90;;;;;;4978808;28;20146;-63
2022/03/29 05:15:08;;;;;;;40.35;22.20;;;8.20;99.90;;;;;;4975975;28;20191;-63
2022/03/29 05:17:35;;;;;;;46.78;25.23;;;8.20;99.90;;;;;;4962065;28;20057;-64
2022/03/29 05:20:02;;;;;;;46.17;26.00;;;8.20;99.90;;;;;;4970989;28;20047;-63
2022/03/29 05:22:28;;;;;;;44.78;26.55;;;8.20;99.90;;;;;;4956549;28;20101;-63
2022/03/29 05:24:54;;;;;;;48.83;24.90;;;8.20;99.90;;;;;;4953658;28;20055;-63
2022/03/29 05:27:19;;;;;;;45.75;24.95;;;8.20;99.90;;;;;;4952288;28;20062;-63
2022/03/29 05:29:45;;;;;;;45.58;23.67;;;8.20;99.90;;;;;;4963436;28;20513;-63
2022/03/29 05:32:10;;;;;;;52.45;25.80;;;8.20;99.90;;;;;;4978212;28;20085;-63
2022/03/29 05:34:36;;;;;;;39.38;23.27;;;8.20;99.90;;;;;;4991152;28;20072;-63
2022/03/29 05:37:02;;;;;;;50.97;25.52;;;8.20;99.90;;;;;;4981673;28;20086;-63
2022/03/29 05:39:27;;;;;;;42.78;22.48;;;8.20;99.90;;;;;;4956131;28;20050;-63
2022/03/29 05:41:53;;;;;;;60.13;25.80;;;8.20;99.90;;;;;;4991657;28;20094;-64
2022/03/29 05:44:18;;;;;;;46.70;26.40;;;8.20;99.90;;;;;;4987239;28;20073;-63
2022/03/29 05:49:28;;;;;;;46.40;23.30;;;8.20;99.90;;;;;;4951958;28;20054;-63
2022/03/29 05:51:54;;;;;;;35.60;26.20;;;8.30;99.90;;;;;;4957056;28;20629;-63
2022/03/29 05:54:20;;;;;;;44.95;23.95;;;8.20;99.90;;;;;;4952532;28;20046;-63
2022/03/29 05:56:46;;;;;;;40.75;24.55;;;8.30;99.90;;;;;;4952592;28;20467;-63
2022/03/29 05:59:11;;;;;;;49.58;23.40;;;8.20;99.90;;;;;;4955645;28;20047;-63
2022/03/29 06:01:40;;;;;;;50.40;23.98;;;8.30;99.90;;;;;;4953156;28;20054;-63
2022/03/29 06:04:07;;;;;;;39.95;24.15;;;8.30;99.90;;;;;;4964386;28;20380;-63
2022/03/29 06:06:37;;;;;;;40.85;24.50;;;8.30;99.90;;;;;;4977658;28;20098;-63
2022/03/29 06:09:03;;;;;;;40.38;22.85;;;8.30;99.90;;;;;;4953108;28;20051;-63
2022/03/29 06:11:29;;;;;;;37.53;22.45;;;8.30;99.90;;;;;;4962940;28;20050;-63
2022/03/29 06:13:54;;;;;;;50.25;24.08;;;8.30;99.90;;;;;;4958881;28;20130;-63
2022/03/29 06:16:20;;;;;;;37.50;22.45;;;8.30;99.90;;;;;;4970681;28;20101;-63
2022/03/29 06:18:46;;;;;;;31.08;21.88;;;8.40;99.90;;;;;;4969435;28;20483;-63
2022/03/29 06:21:12;;;;;;;46.33;23.45;;;8.40;99.90;;;;;;4970275;28;20057;-64
2022/03/29 06:23:38;;;;;;;46.58;23.67;;;8.40;99.90;;;;;;4970649;28;20061;-63
2022/03/29 06:26:04;;;;;;;42.13;24.88;;;8.30;99.90;;;;;;4964474;28;20059;-64
2022/03/29 06:28:30;;;;;;;39.65;24.02;;;8.30;99.90;;;;;;4951878;28;20043;-64
2022/03/29 06:30:56;;;;;;;34.92;22.45;;;8.40;99.90;;;;;;4985910;28;20050;-63
2022/03/29 06:33:22;;;;;;;40.63;23.83;;;8.40;99.90;;;;;;4990581;28;20078;-63
2022/03/29 06:35:49;;;;;;;42.45;22.75;;;8.40;99.90;;;;;;4974559;28;20145;-63
2022/03/29 06:38:20;;;;;;;43.35;24.00;;;8.40;99.90;;;;;;4954644;28;20054;-63
2022/03/29 06:40:49;;;;;;;42.97;25.27;;;8.40;99.90;;;;;;4978897;28;20132;-63
2022/03/29 06:43:15;;;;;;;38.00;23.63;;;8.40;99.90;;;;;;4951223;28;20043;-64
2022/03/29 06:45:41;;;;;;;40.92;22.52;;;8.40;99.90;;;;;;4951550;28;20480;-64
2022/03/29 06:48:07;;;;;;;39.45;23.27;;;8.40;99.90;;;;;;4978193;28;20125;-63
2022/03/29 06:50:33;;;;;;;44.60;25.70;;;8.50;99.90;;;;;;4974775;28;20047;-63
2022/03/29 06:52:59;;;;;;;37.70;23.02;;;8.40;99.90;;;;;;4955999;28;20051;-63
2022/03/29 06:55:26;;;;;;;38.10;23.08;;;8.50;99.90;;;;;;4974904;28;20061;-64
2022/03/29 06:57:52;;;;;;;40.20;23.40;;;8.50;99.90;;;;;;4957889;28;20043;-63
2022/03/29 07:00:17;;;;;;;40.40;23.80;;;8.50;99.90;;;;;;4951800;28;20043;-63
2022/03/29 07:02:44;;;;;;;40.15;24.08;;;8.50;99.90;;;;;;4951069;28;20040;-64
2022/03/29 07:05:10;;;;;;;38.75;21.83;;;8.50;99.90;;;;;;4957310;28;20062;-63
2022/03/29 07:07:36;;;;;;;43.33;26.30;;;8.50;99.90;;;;;;4964702;28;20062;-64
2022/03/29 07:12:58;;;;;;;32.92;22.70;;;8.60;99.90;;;;;;4982305;28;20055;-63
2022/03/29 07:15:25;;;;;;;42.08;23.80;;;8.60;99.90;;;;;;4950930;28;20511;-63
2022/03/29 07:17:51;;;;;;;41.38;23.65;;;8.60;99.90;;;;;;4950726;28;20159;-63
2022/03/29 07:20:17;;;;;;;36.60;22.60;;;8.70;99.90;;;;;;4989913;28;20522;-63
2022/03/29 07:22:43;;;;;;;37.67;22.58;;;8.70;99.90;;;;;;4963253;28;20051;-63
2022/03/29 07:25:11;;;;;;;43.00;23.63;;;8.70;99.90;;;;;;4964165;28;20098;-63
2022/03/29 07:27:36;;;;;;;39.83;24.30;;;8.60;99.90;;;;;;4965535;28;20042;-63
2022/03/29 07:30:04;;;;;;;41.28;22.15;;;8.70;99.90;;;;;;4960561;28;20081;-63
2022/03/29 07:32:30;;;;;;;48.63;25.88;;;8.60;99.90;;;;;;4950840;28;20448;-63
2022/03/29 07:34:56;;;;;;;38.83;22.83;;;8.60;99.90;;;;;;4966420;28;20078;-63
2022/03/29 07:37:22;;;;;;;39.75;24.13;;;8.70;99.90;;;;;;4983702;28;20050;-63
2022/03/29 07:39:48;;;;;;;38.53;22.38;;;8.70;99.90;;;;;;4954315;28;20047;-63
2022/03/29 07:42:14;;;;;;;41.22;21.92;;;8.70;99.90;;;;;;4950224;28;20062;-63
2022/03/29 07:44:40;;;;;;;45.78;23.58;;;8.70;99.90;;;;;;4950155;28;20578;-63
2022/03/29 07:47:05;;;;;;;38.05;22.85;;;8.70;99.90;;;;;;4951277;28;20043;-63
2022/03/29 07:49:31;;;;;;;39.40;22.38;;;8.70;99.90;;;;;;4950800;28;20046;-63
2022/03/29 07:51:56;;;;;;;45.70;22.08;;;8.70;99.90;;;;;;4969569;28;20129;-63
2022/03/29 07:54:22;;;;;;;43.90;24.00;;;8.80;99.90;;;;;;4950093;28;20058;-63
2022/03/29 07:56:48;;;;;;;47.20;22.13;;;8.80;99.90;;;;;;4950410;28;20047;-63
2022/03/29 07:59:13;;;;;;;47.80;23.77;;;8.70;99.90;;;;;;4962021;28;20208;-63
2022/03/29 08:01:39;;;;;;;40.85;22.48;;;8.70;99.90;;;;;;4965422;28;20895;-63
2022/03/29 08:04:05;;;;;;;36.72;22.52;;;8.70;99.90;;;;;;4963742;28;20075;-63
2022/03/29 08:06:31;;;;;;;39.35;21.58;;;8.80;99.90;;;;;;4948587;28;20042;-63
2022/03/29 08:08:56;;;;;;;39.67;22.83;;;8.80;99.90;;;;;;4964439;28;20039;-63
2022/03/29 08:11:22;;;;;;;38.70;21.60;;;8.80;99.90;;;;;;4955412;28;20480;-63
2022/03/29 08:13:49;;;;;;;40.28;21.75;;;8.80;99.90;;;;;;4957487;28;20146;-63
2022/03/29 08:16:15;;;;;;;44.95;23.80;;;8.80;99.90;;;;;;4958172;28;20146;-63
2022/03/29 08:18:41;;;;;;;42.78;21.30;;;8.80;99.90;;;;;;4963670;28;20053;-63
2022/03/29 08:23:53;;;;;;;44.28;21.75;;;8.90;99.90;;;;;;4995822;28;20106;-63
2022/03/29 08:26:18;;;;;;;50.08;21.92;;;8.90;99.90;;;;;;4949238;28;20047;-63
2022/03/29 08:28:45;;;;;;;51.28;21.70;;;8.90;99.90;;;;;;4965012;28;20541;-63
2022/03/29 08:31:12;;;;;;;36.78;22.33;;;9.00;99.90;;;;;;4966896;28;20050;-63
2022/03/29 08:33:37;;;;;;;39.72;22.50;;;9.00;99.90;;;;;;4950066;28;20446;-63
2022/03/29 08:36:03;;;;;;;41.97;21.27;;;9.10;99.90;;;;;;4950225;28;20098;-63
2022/03/29 08:38:30;;;;;;;41.25;20.38;;;9.10;99.90;;;;;;4948640;28;20206;-63
2022/03/29 08:40:58;;;;;;;39.78;20.98;;;9.10;99.90;;;;;;4995046;28;20043;-63
2022/03/29 08:43:27;;;;;;;40.58;20.85;;;9.10;99.90;;;;;;4968836;28;20035;-63
2022/03/29 08:45:53;;;;;;;40.58;20.13;;;9.20;99.90;;;;;;4957011;28;20043;-63
2022/03/29 08:48:23;;;;;;;40.75;20.02;;;9.20;99.90;;;;;;4969097;28;20050;-63
2022/03/29 08:50:51;;;;;;;40.67;20.92;;;9.30;99.90;;;;;;4955896;28;20047;-63
2022/03/29 08:53:17;;;;;;;38.75;20.58;;;9.40;99.90;;;;;;4964663;28;20039;-63
2022/03/29 08:55:44;;;;;;;47.67;20.25;;;9.40;99.90;;;;;;4958054;28;20518;-63
2022/03/29 08:58:10;;;;;;;39.95;20.80;;;9.50;99.90;;;;;;4953353;28;20054;-63
2022/03/29 09:00:36;;;;;;;34.10;19.33;;;9.50;99.90;;;;;;4954262;28;20082;-63
2022/03/29 09:03:02;;;;;;;39.50;21.30;;;9.50;99.90;;;;;;4975040;28;20461;-63
2022/03/29 09:05:29;;;;;;;40.58;20.65;;;9.60;99.90;;;;;;4966385;28;20098;-63
2022/03/29 09:08:03;;;;;;;41.78;22.13;;;9.80;99.90;;;;;;4958476;28;20055;-63
2022/03/29 09:10:49;;;;;;;49.55;23.60;;;9.80;99.90;;;;;;4959949;28;20137;-63
2022/03/29 09:13:29;;;;;;;37.85;21.27;;;9.70;99.90;;;;;;4968649;28;20042;-63
2022/03/29 09:15:57;;;;;;;46.28;21.60;;;9.80;99.90;;;;;;4961114;28;20097;-63
2022/03/29 09:18:23;;;;;;;42.53;22.38;;;9.80;99.90;;;;;;4955283;28;20043;-63
2022/03/29 09:21:09;;;;;;;37.85;21.35;;;9.80;99.90;;;;;;4964885;28;20061;-63
2022/03/29 09:23:35;;;;;;;43.97;20.08;;;9.90;99.90;;;;;;4971915;28;20046;-63
2022/03/29 09:26:02;;;;;;;45.97;20.27;;;9.90;99.90;;;;;;4960515;28;20085;-63
2022/03/29 09:28:34;;;;;;;42.58;20.70;;;10.10;99.90;;;;;;4964232;28;20035;-63
2022/03/29 09:31:00;;;;;;;41.75;21.98;;;10.10;99.90;;;;;;4963450;28;20201;-63
2022/03/29 09:33:33;;;;;;;34.33;19.38;;;10.30;99.90;;;;;;4960239;28;20117;-63
2022/03/29 09:36:02;;;;;;;45.22;19.67;;;10.40;99.90;;;;;;4965238;28;20594;-63
2022/03/29 09:38:39;;;;;;;42.47;19.45;;;10.40;99.90;;;;;;4963996;28;20077;-63
2022/03/29 09:41:18;;;;;;;32.22;18.65;;;10.60;99.90;;;;;;4964917;28;20598;-63
2022/03/29 09:43:44;;;;;;;33.65;18.33;;;10.70;99.90;;;;;;4963299;28;20411;-63
2022/03/29 09:46:09;;;;;;;39.33;18.20;;;10.80;99.90;;;;;;4961337;28;20078;-63
2022/03/29 09:48:40;;;;;;;30.25;16.15;;;10.80;99.90;;;;;;4960557;28;20047;-63
2022/03/29 09:51:09;;;;;;;33.13;17.45;;;10.80;99.90;;;;;;4960193;28;20054;-63
2022/03/29 09:53:45;;;;;;;30.98;16.67;;;10.90;99.90;;;;;;4969678;28;20090;-63
2022/03/29 09:56:14;;;;;;;29.52;17.25;;;10.90;99.90;;;;;;4958092;28;20445;-63
2022/03/29 09:58:40;;;;;;;33.45;18.95;;;11.00;99.90;;;;;;4964423;28;20066;-63
2022/03/29 10:01:20;;;;;;;35.03;16.48;;;11.00;99.90;;;;;;4955464;28;20050;-63
2022/03/29 10:03:47;;;;;;;38.70;17.08;;;11.00;99.90;;;;;;4971077;28;20042;-63
2022/03/29 10:06:15;;;;;;;32.08;14.52;;;11.00;99.90;;;;;;4971851;28;20046;-63
2022/03/29 10:11:32;;;;;;;35.58;15.55;;;11.20;99.90;;;;;;4955775;28;20059;-63
2022/03/29 10:14:00;;;;;;;43.40;15.23;;;11.20;99.90;;;;;;4959427;28;20064;-63
2022/03/29 10:16:27;;;;;;;32.47;13.18;;;11.20;99.90;;;;;;4967620;28;20054;-63
2022/03/29 10:18:55;;;;;;;31.50;13.57;;;11.30;99.90;;;;;;4964851;28;20050;-63
2022/03/29 10:21:21;;;;;;;44.03;16.63;;;11.70;99.90;;;;;;4968231;28;20130;-63
2022/03/29 10:23:49;;;;;;;33.35;14.93;;;12.00;99.90;;;;;;4971044;28;20129;-63
2022/03/29 10:26:21;;;;;;;29.45;13.77;;;12.10;99.90;;;;;;4968659;28;20047;-63
2022/03/29 10:28:48;;;;;;;27.98;13.98;;;12.00;99.90;;;;;;4968819;28;20050;-63
2022/03/29 10:31:39;;;;;;;26.60;12.32;;;12.00;99.90;;;;;;4962202;28;20053;-63
2022/03/29 10:34:33;;;;;;;33.08;14.32;;;12.10;99.90;;;;;;4951555;28;20063;-63
2022/03/29 10:37:07;;;;;;;40.60;15.13;;;12.00;99.90;;;;;;4963792;28;20063;-63
2022/03/29 10:39:48;;;;;;;31.10;12.82;;;12.10;99.90;;;;;;4958061;28;20047;-63
2022/03/29 10:42:46;;;;;;;37.00;14.15;;;12.30;99.90;;;;;;4953293;28;20050;-63
2022/03/29 10:45:18;;;;;;;32.88;14.95;;;12.30;99.90;;;;;;4962149;28;20046;-63
2022/03/29 10:48:05;;;;;;;27.58;12.38;;;12.10;99.90;;;;;;4954971;28;20397;-63
2022/03/29 10:50:53;;;;;;;33.85;12.65;;;12.20;99.90;;;;;;4958260;28;20055;-63
2022/03/29 10:53:35;;;;;;;49.72;15.25;;;12.40;99.90;;;;;;4970683;28;20039;-63
2022/03/29 10:56:13;;;;;;;35.08;15.00;;;12.70;99.90;;;;;;4951695;28;20070;-63
2022/03/29 10:59:04;;;;;;;36.90;13.88;;;12.90;99.90;;;;;;4950999;28;20055;-63
2022/03/29 11:01:30;;;;;;;31.70;12.75;;;12.70;99.90;;;;;;4952120;28;20054;-63
2022/03/29 11:04:07;;;;;;;29.80;13.15;;;12.60;99.90;;;;;;4959581;28;20082;-63
2022/03/29 11:06:33;;;;;;;29.27;12.77;;;12.60;99.90;;;;;;4961222;28;20550;-63
2022/03/29 11:09:17;;;;;;;32.42;12.55;;;12.30;99.90;;;;;;4964310;28;20053;-63
2022/03/29 11:11:46;;;;;;;35.67;12.93;;;12.30;99.90;;;;;;4965885;28;20498;-63
2022/03/29 11:14:27;;;;;;;31.05;13.02;;;12.30;99.90;;;;;;4973337;28;20046;-63
2022/03/29 11:17:13;;;;;;;23.00;10.52;;;12.20;99.90;;;;;;4957344;28;20050;-63
2022/03/29 11:19:49;;;;;;;28.85;11.68;;;12.00;99.90;;;;;;4952986;28;20051;-63
2022/03/29 11:22:34;;;;;;;35.38;11.88;;;12.00;99.90;;;;;;4962392;28;20401;-63
2022/03/29 11:25:03;;;;;;;27.30;10.30;;;12.00;99.90;;;;;;4951575;28;20114;-63
2022/03/29 11:27:33;;;;;;;24.35;10.65;;;12.10;99.90;;;;;;4950033;28;20090;-63
2022/03/29 11:30:01;;;;;;;31.15;11.55;;;12.10;99.90;;;;;;4951294;28;20098;-63
2022/03/29 11:32:27;;;;;;;36.17;9.77;;;12.20;99.90;;;;;;4963179;28;20075;-63
2022/03/29 11:34:57;;;;;;;28.83;9.98;;;12.20;99.90;;;;;;4955589;28;20035;-63
2022/03/29 11:37:43;;;;;;;23.88;10.00;;;12.40;99.90;;;;;;4968911;28;20469;-63
2022/03/29 11:40:11;;;;;;;25.40;9.07;;;12.40;99.90;;;;;;4970480;28;20050;-63
2022/03/29 11:42:49;;;;;;;22.95;10.13;;;12.30;99.90;;;;;;4961070;28;20514;-63
2022/03/29 11:45:19;;;;;;;23.23;9.52;;;12.20;99.90;;;;;;4958249;28;20062;-63
2022/03/29 11:47:56;;;;;;;23.30;10.25;;;12.10;99.90;;;;;;4958925;28;20507;-63
2022/03/29 11:50:36;;;;;;;29.63;10.30;;;12.10;99.90;;;;;;4976412;28;20095;-63
2022/03/29 11:53:20;;;;;;;31.80;11.05;;;12.00;99.90;;;;;;4957867;28;20050;-63
2022/03/29 11:56:09;;;;;;;29.85;9.77;;;11.90;99.90;;;;;;4970034;28;20097;-63
2022/03/29 11:58:39;;;;;;;28.50;11.52;;;12.00;99.90;;;;;;4964671;28;20534;-63
2022/03/29 12:01:10;;;;;;;30.08;10.73;;;11.80;99.90;;;;;;4959537;28;20046;-63
2022/03/29 12:03:40;;;;;;;38.25;10.65;;;11.90;99.90;;;;;;4966166;28;20526;-63
2022/03/29 12:06:14;;;;;;;22.15;7.93;;;11.90;99.90;;;;;;4968865;28;20046;-63
2022/03/29 12:08:53;;;;;;;26.63;9.32;;;12.00;99.90;;;;;;4957678;28;20115;-63
2022/03/29 12:11:37;;;;;;;29.88;9.82;;;12.00;99.90;;;;;;4950573;28;20066;-63
2022/03/29 12:14:09;;;;;;;32.50;11.45;;;12.00;99.90;;;;;;4959066;28;20043;-63
2022/03/29 12:16:39;;;;;;;26.45;11.13;;;12.00;99.90;;;;;;4968226;28;20051;-63
2022/03/29 12:19:12;;;;;;;27.27;8.73;;;12.00;99.90;;;;;;4961732;28;20049;-63
2022/03/29 12:21:39;;;;;;;;;;;12.10;99.90;;;;;;4955731;28;20057;-63
2022/03/29 12:24:09;;;;;;;24.63;8.88;;;12.00;99.90;;;;;;4966724;28;20289;-63
2022/03/29 12:26:42;;;;;;;26.27;9.82;;;12.10;99.90;;;;;;4949831;28;20051;-63
2022/03/29 12:29:11;;;;;;;23.70;10.13;;;12.10;99.90;;;;;;4970762;28;20042;-63
2022/03/29 12:31:38;;;;;;;28.27;10.05;;;12.10;99.90;;;;;;4954688;28;20062;-63
2022/03/29 12:34:04;;;;;;;33.58;10.75;;;12.00;99.90;;;;;;4957990;28;20074;-63
2022/03/29 12:36:30;;;;;;;26.70;9.93;;;12.20;99.90;;;;;;4970697;28;20058;-63
2022/03/29 12:39:05;;;;;;;31.05;10.73;;;12.50;99.90;;;;;;4972474;28;20081;-63
2022/03/29 12:41:37;;;;;;;30.23;10.73;;;13.00;99.90;;;;;;4971548;28;20044;-63
2022/03/29 12:44:05;;;;;;;30.20;11.02;;;13.00;99.90;;;;;;4957080;28;20070;-63
2022/03/29 12:46:32;;;;;;;33.75;11.73;;;13.80;99.90;;;;;;4949318;28;20055;-63
2022/03/29 12:48:58;;;;;;;28.40;10.05;;;14.10;99.90;;;;;;4951905;28;20043;-63
2022/03/29 12:51:29;;;;;;;16.73;8.10;;;14.50;99.90;;;;;;4957747;28;20065;-63
2022/03/29 12:54:00;;;;;;;29.13;9.20;;;14.80;99.90;;;;;;4969576;28;20049;-63